Time;durP1;ratioP1;P1;durP2;ratioP2;P2;SDS_P1;SDS_P2;PMS_P1;PMS_P2;Temp;Humidity;BMP_temperature;BMP_pressure;BME280_temperature;BME280_humidity;BME280_pressure;Samples;Min_cycle;Max_cycle;Signal;HPM_P1;HPM_P2
2022/03/28 00:01:52;;;;;;;15.50;4.90;;;;;;;4.67;43.53;100778.97;4189586;28;20664;-73
2022/03/28 00:04:19;;;;;;;15.80;5.40;;;;;;;4.60;43.38;100782.00;4197418;28;20232;-74
2022/03/28 00:06:46;;;;;;;13.47;4.80;;;;;;;4.59;43.75;100779.47;4189374;28;20236;-74
2022/03/28 00:09:12;;;;;;;14.83;5.07;;;;;;;4.54;43.84;100771.88;4202767;28;20250;-73
2022/03/28 00:11:39;;;;;;;11.63;4.57;;;;;;;4.58;44.09;100772.50;4193335;28;23676;-75
2022/03/28 00:14:06;;;;;;;11.73;4.87;;;;;;;4.56;44.64;100764.69;4186581;28;21809;-74
2022/03/28 00:16:33;;;;;;;17.03;5.40;;;;;;;4.50;44.50;100761.63;4189232;28;21796;-73
2022/03/28 00:18:59;;;;;;;16.20;5.30;;;;;;;4.45;44.64;100756.63;4182171;28;20409;-74
2022/03/28 00:21:26;;;;;;;17.20;5.33;;;;;;;4.49;44.40;100757.28;4177956;28;20228;-75
2022/03/28 00:23:53;;;;;;;16.77;5.23;;;;;;;4.49;44.57;100752.84;4177005;28;26240;-73
2022/03/28 00:26:20;;;;;;;14.63;4.50;;;;;;;4.43;44.71;100740.91;4186896;28;21875;-75
2022/03/28 00:28:47;;;;;;;15.23;4.83;;;;;;;4.40;44.77;100737.59;4189817;28;20236;-73
2022/03/28 00:31:14;;;;;;;17.03;4.73;;;;;;;4.38;44.84;100735.09;4202774;28;23093;-74
2022/03/28 00:33:40;;;;;;;16.97;5.53;;;;;;;4.41;44.68;100734.06;4169101;28;20234;-74
2022/03/28 00:36:07;;;;;;;16.03;5.37;;;;;;;4.43;44.42;100729.53;4184637;28;20394;-72
2022/03/28 00:38:34;;;;;;;13.70;4.63;;;;;;;4.53;43.73;100728.00;4189651;28;20224;-74
2022/03/28 00:41:00;;;;;;;12.63;4.40;;;;;;;4.62;43.98;100724.75;4181500;28;20240;-73
2022/03/28 00:43:27;;;;;;;13.80;4.83;;;;;;;4.73;43.70;100725.84;4187226;28;22052;-74
2022/03/28 00:45:54;;;;;;;13.77;4.60;;;;;;;4.79;43.28;100715.75;4186472;28;20237;-74
2022/03/28 00:48:21;;;;;;;13.70;4.43;;;;;;;4.88;42.87;100714.28;4183241;28;20503;-72
2022/03/28 00:50:47;;;;;;;12.47;4.30;;;;;;;4.89;42.92;100715.97;4195912;28;20279;-73
2022/03/28 00:53:14;;;;;;;13.47;4.57;;;;;;;4.91;42.69;100716.72;4181069;28;26790;-71
2022/03/28 00:55:41;;;;;;;13.97;4.30;;;;;;;4.91;42.57;100711.44;4164667;28;20288;-71
2022/03/28 00:58:07;;;;;;;14.17;4.23;;;;;;;4.98;42.38;100701.34;4192547;28;20302;-72
2022/03/28 01:00:34;;;;;;;13.33;4.53;;;;;;;5.02;42.54;100703.66;4187348;28;21738;-73
2022/03/28 01:03:01;;;;;;;11.97;4.10;;;;;;;5.11;41.67;100698.75;4187404;28;20410;-72
2022/03/28 01:05:28;;;;;;;15.93;4.00;;;;;;;5.17;41.66;100690.41;4179982;28;20432;-75
2022/03/28 01:07:56;;;;;;;13.20;3.80;;;;;;;5.25;41.13;100680.19;4166161;28;20249;-72
2022/03/28 01:10:23;;;;;;;14.20;4.30;;;;;;;5.33;41.20;100682.28;4188416;28;20301;-72
2022/03/28 01:12:50;;;;;;;15.27;4.77;;;;;;;5.37;41.22;100671.41;4178013;28;20316;-76
2022/03/28 01:15:19;;;;;;;10.63;3.80;;;;;;;5.43;40.64;100668.38;4180036;28;20279;-74
2022/03/28 01:20:33;;;;;;;10.47;4.00;;;;;;;5.53;40.58;100652.72;4188400;28;20319;-73
2022/03/28 01:22:59;;;;;;;12.83;4.60;;;;;;;5.55;39.96;100658.75;4176127;28;20247;-74
2022/03/28 01:25:29;;;;;;;22.90;4.93;;;;;;;5.63;39.75;100651.13;4183153;28;20228;-73
2022/03/28 01:27:58;;;;;;;13.13;4.20;;;;;;;5.61;40.34;100652.19;4188683;28;20236;-73
2022/03/28 01:30:28;;;;;;;11.43;4.00;;;;;;;5.59;40.40;100643.53;4190859;28;25949;-75
2022/03/28 01:32:57;;;;;;;13.63;3.73;;;;;;;5.57;40.36;100637.50;4164713;28;21469;-75
2022/03/28 01:35:38;;;;;;;9.93;4.40;;;;;;;5.52;40.60;100643.09;4185139;28;20238;-73
2022/03/28 01:38:06;;;;;;;11.17;4.07;;;;;;;5.50;40.89;100634.44;4169796;28;20294;-75
2022/03/28 01:40:34;;;;;;;14.77;4.10;;;;;;;5.40;41.07;100631.59;4177920;28;20327;-74
2022/03/28 01:43:01;;;;;;;9.57;3.90;;;;;;;5.41;40.82;100629.84;4175320;28;20241;-75
2022/03/28 01:45:28;;;;;;;12.30;4.30;;;;;;;5.40;40.57;100628.97;4174488;28;21780;-75
2022/03/28 01:47:55;;;;;;;14.67;3.80;;;;;;;5.39;41.00;100622.03;4176245;28;21204;-76
2022/03/28 01:50:22;;;;;;;14.33;3.90;;;;;;;5.30;41.42;100617.38;4185502;28;20408;-74
2022/03/28 01:52:49;;;;;;;16.67;4.13;;;;;;;5.23;42.03;100616.94;4177346;28;23496;-73
2022/03/28 01:55:16;;;;;;;13.33;3.87;;;;;;;5.23;41.74;100605.56;4187655;28;20244;-73
2022/03/28 01:57:44;;;;;;;12.30;3.70;;;;;;;5.15;42.13;100607.88;4177257;28;20225;-73
2022/03/28 02:00:18;;;;;;;14.63;4.20;;;;;;;5.04;42.43;100596.28;4179899;28;20236;-74
2022/03/28 02:02:47;;;;;;;8.07;3.80;;;;;;;5.03;42.30;100602.53;4182543;28;21467;-76
2022/03/28 02:05:17;;;;;;;15.00;4.70;;;;;;;5.01;42.51;100598.28;4176732;28;20296;-74
2022/03/28 02:07:46;;;;;;;17.77;4.47;;;;;;;4.93;42.68;100590.88;4179001;28;20236;-74
2022/03/28 02:10:15;;;;;;;9.67;3.67;;;;;;;4.92;43.01;100591.84;4184507;28;21511;-74
2022/03/28 02:12:43;;;;;;;13.20;4.20;;;;;;;4.88;42.96;100593.00;4184333;28;20325;-73
2022/03/28 02:15:10;;;;;;;12.87;4.20;;;;;;;4.84;42.84;100588.88;4171079;28;20243;-74
2022/03/28 02:17:38;;;;;;;12.90;4.70;;;;;;;4.86;43.33;100589.63;4189466;28;20247;-73
2022/03/28 02:20:08;;;;;;;12.60;4.20;;;;;;;4.79;43.33;100591.81;4191516;28;20241;-73
2022/03/28 02:22:38;;;;;;;12.47;3.73;;;;;;;4.75;43.69;100584.22;4177092;28;20234;-74
2022/03/28 02:25:07;;;;;;;11.03;4.70;;;;;;;4.71;43.61;100588.03;4174053;28;20252;-75
2022/03/28 02:27:34;;;;;;;13.23;4.30;;;;;;;4.70;43.48;100586.34;4184311;28;20248;-74
2022/03/28 02:30:01;;;;;;;10.93;4.60;;;;;;;4.67;43.67;100576.00;4171644;28;22820;-74
2022/03/28 02:32:29;;;;;;;18.17;4.97;;;;;;;4.62;43.63;100579.78;4191713;28;20240;-74
2022/03/28 02:34:55;;;;;;;14.97;4.50;;;;;;;4.65;43.86;100574.31;4174012;28;20234;-74
2022/03/28 02:37:23;;;;;;;12.63;4.73;;;;;;;4.69;43.37;100576.75;4180122;28;25742;-73
2022/03/28 02:39:50;;;;;;;14.23;4.40;;;;;;;4.67;43.58;100576.00;4184632;28;20236;-76
2022/03/28 02:42:16;;;;;;;19.07;5.37;;;;;;;4.72;43.58;100572.09;4190395;28;20256;-75
2022/03/28 02:44:43;;;;;;;18.20;4.80;;;;;;;4.72;43.30;100571.25;4189276;28;20327;-72
2022/03/28 02:47:09;;;;;;;14.77;5.07;;;;;;;4.67;43.50;100570.75;4186860;28;25873;-72
2022/03/28 02:49:36;;;;;;;12.43;4.53;;;;;;;4.69;43.95;100574.97;4189973;28;22111;-74
2022/03/28 02:52:03;;;;;;;19.33;4.93;;;;;;;4.65;43.93;100570.84;4175804;28;22420;-73
2022/03/28 02:54:30;;;;;;;13.57;4.67;;;;;;;4.63;44.11;100563.00;4172307;28;20260;-73
2022/03/28 02:56:56;;;;;;;13.63;5.20;;;;;;;4.52;44.45;100562.06;4183964;28;20707;-73
2022/03/28 02:59:23;;;;;;;14.20;5.10;;;;;;;4.45;44.19;100548.47;4203059;28;20244;-74
2022/03/28 03:01:50;;;;;;;11.93;4.90;;;;;;;4.44;45.25;100552.03;4186836;28;20243;-73
2022/03/28 03:04:18;;;;;;;13.50;5.37;;;;;;;4.36;45.11;100554.34;4181037;28;20253;-73
2022/03/28 03:06:44;;;;;;;17.10;4.80;;;;;;;4.35;45.07;100553.47;4186126;28;23182;-73
2022/03/28 03:09:11;;;;;;;16.47;5.17;;;;;;;4.29;45.41;100553.91;4188545;28;20625;-73
2022/03/28 03:11:37;;;;;;;13.20;4.63;;;;;;;4.20;46.10;100547.44;4180858;28;20240;-74
2022/03/28 03:14:05;;;;;;;12.80;4.20;;;;;;;4.18;46.18;100554.59;4185850;28;20228;-75
2022/03/28 03:16:31;;;;;;;15.13;4.97;;;;;;;4.13;46.82;100540.06;4206831;28;20576;-72
2022/03/28 03:18:58;;;;;;;14.13;4.97;;;;;;;4.04;46.83;100549.41;4190471;28;20318;-74
2022/03/28 03:21:25;;;;;;;16.13;5.77;;;;;;;4.01;47.09;100537.28;4186294;28;23657;-74
2022/03/28 03:23:51;;;;;;;16.57;4.90;;;;;;;3.98;47.14;100540.13;4192195;28;22931;-74
2022/03/28 03:26:18;;;;;;;17.43;5.27;;;;;;;3.91;48.01;100537.97;4180299;28;20236;-75
2022/03/28 03:28:44;;;;;;;14.33;4.73;;;;;;;3.90;48.06;100536.31;4194732;28;20227;-74
2022/03/28 03:31:11;;;;;;;14.30;5.10;;;;;;;3.87;47.98;100534.72;4204655;28;22539;-72
2022/03/28 03:33:38;;;;;;;16.30;5.13;;;;;;;3.90;48.23;100531.03;4208733;28;21207;-73
2022/03/28 03:36:06;;;;;;;13.20;5.10;;;;;;;3.89;48.60;100526.72;4231421;28;20238;-75
2022/03/28 03:38:33;;;;;;;14.90;4.80;;;;;;;3.88;48.71;100519.75;4203883;28;20237;-74
2022/03/28 03:41:00;;;;;;;11.53;4.63;;;;;;;3.78;48.73;100517.72;4221796;28;20251;-74
2022/03/28 03:43:26;;;;;;;13.07;4.70;;;;;;;3.85;49.15;100520.81;4229600;28;20242;-74
2022/03/28 03:45:54;;;;;;;19.57;5.47;;;;;;;3.77;49.15;100517.84;4211481;28;20230;-74
2022/03/28 03:48:21;;;;;;;17.80;5.57;;;;;;;3.72;48.71;100514.63;4203587;28;20339;-74
2022/03/28 03:50:48;;;;;;;15.67;5.93;;;;;;;3.66;49.67;100501.91;4198926;28;20965;-74
2022/03/28 03:53:14;;;;;;;17.63;6.30;;;;;;;3.62;49.97;100503.88;4205020;28;20229;-73
2022/03/28 03:55:41;;;;;;;16.47;5.93;;;;;;;3.61;50.43;100502.19;4208028;28;20238;-74
2022/03/28 03:58:08;;;;;;;15.93;5.40;;;;;;;3.59;50.07;100498.81;4214746;28;20413;-74
2022/03/28 04:00:35;;;;;;;12.53;4.87;;;;;;;3.62;50.54;100497.75;4230662;28;20236;-73
2022/03/28 04:03:02;;;;;;;13.80;4.73;;;;;;;3.53;50.84;100489.50;4206442;28;20244;-74
2022/03/28 04:05:30;;;;;;;19.40;5.73;;;;;;;3.49;50.78;100488.03;4228490;28;20258;-73
2022/03/28 04:07:56;;;;;;;16.07;5.53;;;;;;;3.51;50.99;100488.78;4220686;28;20225;-74
2022/03/28 04:10:23;;;;;;;11.87;4.30;;;;;;;3.49;51.19;100484.53;4182651;28;20319;-76
2022/03/28 04:12:49;;;;;;;15.20;5.33;;;;;;;3.43;51.54;100477.06;4178554;28;20236;-72
2022/03/28 04:15:16;;;;;;;14.80;5.67;;;;;;;3.44;51.85;100473.47;4195032;28;20308;-74
2022/03/28 04:17:44;;;;;;;17.73;6.00;;;;;;;3.40;52.14;100478.09;4207613;28;20236;-74
2022/03/28 04:20:15;;;;;;;12.20;5.07;;;;;;;3.44;51.98;100473.47;4186540;28;20227;-78
2022/03/28 04:22:42;;;;;;;14.97;5.63;;;;;;;3.44;52.26;100468.22;4190278;28;22585;-72
2022/03/28 04:25:09;;;;;;;15.83;5.83;;;;;;;3.43;52.36;100472.63;4189643;28;20415;-73
2022/03/28 04:27:36;;;;;;;20.33;6.60;;;;;;;3.41;52.04;100468.41;4185343;28;20244;-75
2022/03/28 04:30:05;;;;;;;16.63;6.07;;;;;;;3.37;52.62;100466.00;4179797;28;20268;-73
2022/03/28 04:32:32;;;;;;;15.70;5.40;;;;;;;3.44;52.71;100462.94;4192578;28;20232;-73
2022/03/28 04:34:58;;;;;;;16.83;6.00;;;;;;;3.41;52.98;100457.91;4379608;28;20233;-74
2022/03/28 04:37:25;;;;;;;13.87;5.30;;;;;;;3.38;52.92;100462.41;4331276;28;21646;-73
2022/03/28 04:39:52;;;;;;;19.17;6.20;;;;;;;3.36;53.34;100453.75;4368857;28;21772;-73
2022/03/28 04:42:20;;;;;;;15.57;5.73;;;;;;;3.44;53.33;100462.94;4366788;28;20637;-72
2022/03/28 04:44:47;;;;;;;17.50;6.13;;;;;;;3.40;53.28;100451.78;4432834;28;20244;-76
2022/03/28 04:47:14;;;;;;;16.30;5.50;;;;;;;3.43;53.60;100454.22;4429722;28;20236;-73
2022/03/28 04:49:41;;;;;;;19.90;6.30;;;;;;;3.47;53.69;100447.00;4420593;28;21764;-73
2022/03/28 04:52:08;;;;;;;13.00;5.73;;;;;;;3.51;54.03;100443.19;4362145;28;26435;-72
2022/03/28 04:54:36;;;;;;;20.17;6.30;;;;;;;3.55;53.79;100440.28;4262430;28;21420;-74
2022/03/28 04:57:04;;;;;;;18.40;6.10;;;;;;;3.62;54.36;100445.97;4197618;28;21948;-74
2022/03/28 04:59:32;;;;;;;16.27;5.93;;;;;;;3.67;54.71;100443.03;4221512;28;20287;-73
2022/03/28 05:01:59;;;;;;;17.20;6.30;;;;;;;3.69;54.78;100431.47;4206883;28;21651;-75
2022/03/28 05:04:26;;;;;;;16.20;6.27;;;;;;;3.77;55.03;100441.53;4179912;28;20382;-75
2022/03/28 05:06:53;;;;;;;20.37;6.50;;;;;;;3.87;54.76;100437.31;4215250;28;20247;-75
2022/03/28 05:09:20;;;;;;;17.47;6.33;;;;;;;3.95;54.57;100442.06;4229669;28;20654;-74
2022/03/28 05:11:46;;;;;;;20.07;6.30;;;;;;;4.05;54.42;100440.53;4213514;28;20241;-74
2022/03/28 05:14:13;;;;;;;19.33;6.10;;;;;;;4.07;54.47;100430.69;4221619;28;20222;-73
2022/03/28 05:16:40;;;;;;;20.13;6.07;;;;;;;4.17;54.09;100425.69;4232464;28;20649;-76
2022/03/28 05:19:13;;;;;;;13.77;5.83;;;;;;;4.27;54.52;100436.44;4214134;28;20451;-74
2022/03/28 05:21:39;;;;;;;16.63;6.13;;;;;;;4.30;54.49;100442.31;4201683;28;20247;-74
2022/03/28 05:24:06;;;;;;;22.80;6.23;;;;;;;4.34;54.18;100438.53;4187286;28;20233;-74
2022/03/28 05:26:33;;;;;;;20.73;6.47;;;;;;;4.43;54.31;100437.06;4187799;28;20220;-74
2022/03/28 05:29:00;;;;;;;18.07;6.33;;;;;;;4.49;54.04;100431.34;4196338;28;20229;-73
2022/03/28 05:31:27;;;;;;;20.57;6.87;;;;;;;4.56;54.24;100429.97;4182054;28;22152;-76
2022/03/28 05:33:54;;;;;;;22.27;7.53;;;;;;;4.62;54.17;100426.09;4186300;28;20476;-75
2022/03/28 05:36:22;;;;;;;25.70;7.20;;;;;;;4.68;53.94;100424.81;4179772;28;20237;-73
2022/03/28 05:38:48;;;;;;;21.80;7.17;;;;;;;4.79;53.60;100433.66;4183575;28;20240;-74
2022/03/28 05:41:16;;;;;;;28.33;8.97;;;;;;;4.90;53.58;100429.44;4186405;28;21348;-70
2022/03/28 05:43:42;;;;;;;20.10;8.30;;;;;;;4.98;53.04;100430.53;4189597;28;20248;-68
2022/03/28 05:46:10;;;;;;;18.60;6.70;;;;;;;5.05;53.30;100439.72;4194321;28;20237;-67
2022/03/28 05:48:37;;;;;;;18.80;7.33;;;;;;;5.19;53.53;100436.09;4182968;28;20334;-70
2022/03/28 05:51:04;;;;;;;23.07;6.80;;;;;;;5.30;52.76;100440.59;4171861;28;20291;-70
2022/03/28 05:53:30;;;;;;;18.60;6.93;;;;;;;5.42;52.63;100442.34;4174759;28;21266;-72
2022/03/28 05:55:57;;;;;;;23.27;7.27;;;;;;;5.53;52.67;100448.66;4193469;28;20247;-71
2022/03/28 05:58:23;;;;;;;15.60;6.97;;;;;;;5.55;52.88;100441.44;4191590;28;21969;-68
2022/03/28 06:00:50;;;;;;;26.83;7.63;;;;;;;5.62;52.47;100442.66;4183501;28;20244;-68
2022/03/28 06:03:18;;;;;;;21.33;6.83;;;;;;;5.66;52.32;100433.56;4178200;28;20228;-69
2022/03/28 06:06:03;;;;;;;18.27;7.73;;;;;;;5.78;52.40;100432.66;4190377;28;21285;-69
2022/03/28 06:08:31;;;;;;;22.47;7.57;;;;;;;5.84;52.55;100420.81;4175291;28;20232;-71
2022/03/28 06:10:57;;;;;;;17.43;7.40;;;;;;;5.94;53.07;100424.47;4188380;28;20294;-70
2022/03/28 06:13:24;;;;;;;18.40;7.30;;;;;;;6.03;53.00;100425.59;4224599;28;20410;-71
2022/03/28 06:15:51;;;;;;;26.23;7.63;;;;;;;6.12;52.09;100419.59;4244274;28;20315;-68
2022/03/28 06:18:18;;;;;;;19.80;7.27;;;;;;;6.16;52.42;100414.91;4247473;28;20273;-68
2022/03/28 06:20:45;;;;;;;19.30;7.77;;;;;;;6.29;52.30;100434.16;4205456;28;20263;-69
2022/03/28 06:23:12;;;;;;;17.97;6.63;;;;;;;6.33;52.37;100423.25;4198474;28;20411;-67
2022/03/28 06:25:40;;;;;;;19.97;6.93;;;;;;;6.35;52.69;100407.28;4203047;28;20221;-75
2022/03/28 06:28:07;;;;;;;24.77;7.63;;;;;;;6.42;52.58;100413.75;4181985;28;20245;-70
2022/03/28 06:30:34;;;;;;;18.97;7.43;;;;;;;6.51;52.87;100414.88;4205447;28;21410;-67
2022/03/28 06:33:01;;;;;;;19.83;6.93;;;;;;;6.50;53.03;100402.59;4218965;28;20241;-72
2022/03/28 06:35:27;;;;;;;18.30;8.17;;;;;;;6.57;52.65;100409.06;4224044;28;20249;-70
2022/03/28 06:37:55;;;;;;;18.43;6.90;;;;;;;6.61;52.96;100407.88;4214330;28;20233;-68
2022/03/28 06:40:22;;;;;;;21.17;7.03;;;;;;;6.75;53.56;100405.00;4245226;28;21271;-74
2022/03/28 06:42:49;;;;;;;16.67;7.97;;;;;;;6.88;53.11;100404.88;4238660;28;20237;-70
2022/03/28 06:45:15;;;;;;;29.17;8.13;;;;;;;6.95;53.39;100402.56;4255643;28;25662;-72
2022/03/28 06:47:51;;;;;;;20.03;8.37;;;;;;;7.02;53.56;100395.81;4255015;28;22400;-71
2022/03/28 06:50:21;;;;;;;25.20;8.10;;;;;;;7.18;53.42;100398.06;4208754;28;21615;-71
2022/03/28 06:52:49;;;;;;;23.67;8.50;;;;;;;7.32;53.46;100399.59;4228031;28;20626;-69
2022/03/28 06:55:16;;;;;;;26.33;8.50;;;;;;;7.40;53.28;100399.84;4215964;28;20256;-70
2022/03/28 06:57:43;;;;;;;20.47;8.40;;;;;;;7.43;53.58;100383.69;4248582;28;21047;-70
2022/03/28 07:00:13;;;;;;;24.87;8.07;;;;;;;7.50;54.17;100387.50;4231085;28;20349;-64
2022/03/28 07:02:42;;;;;;;21.73;8.17;;;;;;;7.64;54.31;100374.94;4250960;28;20408;-67
2022/03/28 07:05:09;;;;;;;27.37;8.73;;;;;;;7.74;54.32;100378.50;4188571;28;20238;-67
2022/03/28 07:07:46;;;;;;;22.20;8.50;;;;;;;7.85;54.15;100367.84;4186421;28;20306;-66
2022/03/28 07:10:17;;;;;;;22.50;8.53;;;;;;;7.97;54.35;100373.91;4221041;28;25418;-70
2022/03/28 07:12:43;;;;;;;16.93;7.50;;;;;;;8.16;54.72;100366.06;4216225;28;20248;-67
2022/03/28 07:15:11;;;;;;;19.23;7.93;;;;;;;8.46;54.11;100364.44;4199670;28;20291;-70
2022/03/28 07:17:56;;;;;;;24.63;8.77;;;;;;;8.73;53.79;100361.19;4206227;28;20250;-69
2022/03/28 07:20:27;;;;;;;18.70;8.20;;;;;;;10.13;50.36;100361.78;4238918;28;20304;-67
2022/03/28 07:22:55;;;;;;;20.50;7.77;;;;;;;12.11;44.63;100385.13;4303357;28;21239;-68
2022/03/28 07:25:23;;;;;;;21.80;8.43;;;;;;;13.78;40.56;100380.06;4286979;28;20772;-70
2022/03/28 07:27:53;;;;;;;20.90;7.23;;;;;;;13.61;40.15;100381.06;4247398;28;20237;-71
2022/03/28 07:30:21;;;;;;;18.67;7.73;;;;;;;14.21;39.35;100386.06;4204603;28;20305;-67
2022/03/28 07:32:50;;;;;;;19.47;7.30;;;;;;;15.22;36.51;100387.22;4266433;28;20776;-69
2022/03/28 07:35:19;;;;;;;22.20;7.50;;;;;;;15.52;36.12;100388.22;4325025;28;20308;-70
2022/03/28 07:37:47;;;;;;;20.10;8.00;;;;;;;14.80;37.47;100382.22;4268769;28;20255;-73
2022/03/28 07:40:15;;;;;;;20.50;7.57;;;;;;;14.52;38.67;100370.06;4203122;28;21034;-68
2022/03/28 07:42:42;;;;;;;22.47;7.90;;;;;;;14.64;38.60;100367.06;4245382;28;22948;-72
2022/03/28 07:45:10;;;;;;;20.20;7.87;;;;;;;15.07;37.45;100373.72;4204359;28;20229;-69
2022/03/28 07:47:37;;;;;;;20.53;8.20;;;;;;;14.83;37.96;100360.44;4246236;28;21640;-73
2022/03/28 07:50:04;;;;;;;17.10;7.80;;;;;;;15.34;37.19;100363.53;4213474;28;20233;-74
2022/03/28 07:52:32;;;;;;;24.98;8.98;;;;;;;16.52;35.07;100356.78;4221313;28;20475;-69
2022/03/28 07:55:00;;;;;;;19.10;8.13;;;;;;;16.08;35.81;100360.25;4226484;28;20296;-72
2022/03/28 07:57:29;;;;;;;24.63;8.07;;;;;;;17.44;33.60;100362.47;4223915;28;21630;-71
2022/03/28 07:59:56;;;;;;;19.00;7.60;;;;;;;17.16;34.09;100354.31;4235992;28;22930;-68
2022/03/28 08:02:46;;;;;;;23.83;8.37;;;;;;;15.79;36.94;100335.03;4293356;28;20446;-78
2022/03/28 08:05:13;;;;;;;26.47;8.40;;;;;;;16.15;37.16;100345.06;4222375;28;21762;-68
2022/03/28 08:07:40;;;;;;;24.37;8.20;;;;;;;16.28;36.30;100323.81;4231319;28;20672;-71
2022/03/28 08:10:07;;;;;;;23.73;8.43;;;;;;;17.23;34.63;100339.06;4263584;28;20271;-70
2022/03/28 08:12:36;;;;;;;24.17;8.23;;;;;;;15.86;37.33;100325.25;4266712;28;21670;-72
2022/03/28 08:15:08;;;;;;;19.57;7.80;;;;;;;16.89;35.24;100320.91;4305056;28;22312;-71
2022/03/28 08:17:36;;;;;;;18.67;8.43;;;;;;;16.86;35.76;100322.09;4211139;28;20430;-71
2022/03/28 08:20:06;;;;;;;21.77;8.53;;;;;;;16.61;36.09;100304.59;4251627;28;25966;-69
2022/03/28 08:22:41;;;;;;;23.07;8.03;;;;;;;16.43;36.71;100305.81;4264850;28;20220;-69
2022/03/28 08:25:08;;;;;;;21.08;8.90;;;;;;;17.07;36.36;100315.94;4182508;28;20528;-59
2022/03/28 08:27:35;;;;;;;27.67;9.13;;;;;;;16.91;35.96;100304.59;4267789;28;21036;-67
2022/03/28 08:30:03;;;;;;;23.97;8.10;;;;;;;15.57;39.04;100299.97;4212478;28;21689;-70
2022/03/28 08:32:30;;;;;;;20.83;7.53;;;;;;;14.98;41.03;100294.38;4240037;28;22453;-68
2022/03/28 08:34:57;;;;;;;27.33;8.37;;;;;;;14.33;42.35;100293.66;4226564;28;20232;-70
2022/03/28 08:37:24;;;;;;;21.50;8.47;;;;;;;13.58;44.62;100288.66;4226741;28;21295;-71
2022/03/28 08:39:54;;;;;;;21.23;8.63;;;;;;;13.23;45.96;100277.25;4214023;28;20962;-69
2022/03/28 08:42:22;;;;;;;29.20;8.93;;;;;;;13.56;45.80;100271.13;4243601;28;20227;-69
2022/03/28 08:44:49;;;;;;;27.63;9.33;;;;;;;13.59;45.10;100263.56;4185699;28;20240;-72
2022/03/28 08:47:20;;;;;;;24.53;9.00;;;;;;;13.34;45.88;100254.72;4194730;28;20244;-69
2022/03/28 08:49:48;;;;;;;25.87;8.83;;;;;;;13.33;46.52;100262.94;4237005;28;20597;-69
2022/03/28 08:52:16;;;;;;;19.77;8.10;;;;;;;13.42;45.48;100259.25;4252770;28;21802;-69
2022/03/28 08:54:45;;;;;;;23.20;7.30;;;;;;;13.46;44.88;100255.22;4242882;28;21051;-71
2022/03/28 08:57:13;;;;;;;28.87;7.57;;;;;;;13.36;44.76;100252.72;4271760;28;20273;-69
2022/03/28 08:59:40;;;;;;;28.23;7.30;;;;;;;13.23;44.39;100249.72;4231177;28;20297;-69
2022/03/28 09:02:38;;;;;;;24.97;6.97;;;;;;;13.43;43.97;100255.56;4199216;28;20881;-70
2022/03/28 09:05:05;;;;;;;18.30;6.47;;;;;;;13.50;43.11;100251.22;4229021;28;20240;-75
2022/03/28 09:07:31;;;;;;;24.40;7.17;;;;;;;13.25;43.29;100239.66;4245822;28;20343;-70
2022/03/28 09:10:00;;;;;;;18.03;7.07;;;;;;;13.18;43.85;100219.97;4207080;28;20233;-67
2022/03/28 09:12:26;;;;;;;19.93;6.50;;;;;;;13.47;42.80;100246.22;4216356;28;20485;-70
2022/03/28 09:15:02;;;;;;;24.10;6.50;;;;;;;13.29;42.41;100227.66;4203567;28;20268;-71
2022/03/28 09:17:31;;;;;;;17.57;6.50;;;;;;;13.00;41.95;100228.16;4275439;28;20263;-69
2022/03/28 09:20:02;;;;;;;21.93;6.07;;;;;;;13.19;40.75;100229.66;4238473;28;20795;-69
2022/03/28 09:22:41;;;;;;;15.53;5.43;;;;;;;13.61;39.75;100220.63;4250741;28;20242;-69
2022/03/28 09:25:10;;;;;;;26.70;6.00;;;;;;;13.47;40.90;100220.31;4258700;28;21716;-69
2022/03/28 09:27:39;;;;;;;18.43;6.17;;;;;;;13.52;40.28;100220.63;4238920;28;20290;-72
2022/03/28 09:30:08;;;;;;;17.57;6.50;;;;;;;13.48;41.11;100211.28;4239829;28;20522;-73
2022/03/28 09:32:37;;;;;;;17.90;6.40;;;;;;;13.26;40.15;100228.00;4266734;28;20291;-70
2022/03/28 09:35:06;;;;;;;19.67;6.30;;;;;;;13.50;40.10;100209.28;4205873;28;21815;-72
2022/03/28 09:37:48;;;;;;;19.73;6.23;;;;;;;13.44;38.69;100212.63;4220311;28;23472;-70
2022/03/28 09:40:22;;;;;;;23.47;6.87;;;;;;;13.34;38.52;100208.47;4254762;28;20262;-70
2022/03/28 09:42:52;;;;;;;15.40;6.40;;;;;;;13.34;38.38;100198.59;4209031;28;20238;-70
2022/03/28 09:45:21;;;;;;;18.87;6.47;;;;;;;13.29;39.79;100195.59;4192004;28;22353;-69
2022/03/28 09:48:08;;;;;;;19.53;7.10;;;;;;;13.52;39.36;100188.56;4192808;28;20240;-74
2022/03/28 09:50:38;;;;;;;22.73;6.97;;;;;;;13.63;39.54;100189.22;4217132;28;20259;-73
2022/03/28 09:53:31;;;;;;;22.00;7.23;;;;;;;13.60;38.68;100171.69;4205041;28;20236;-76
2022/03/28 09:56:01;;;;;;;21.43;6.57;;;;;;;13.59;38.62;100180.69;4238421;28;21781;-73
2022/03/28 09:58:38;;;;;;;20.53;6.17;;;;;;;13.87;37.76;100188.31;4221237;28;21297;-73
2022/03/28 10:01:23;;;;;;;19.77;6.70;;;;;;;13.94;37.76;100174.06;4238292;28;20337;-73
2022/03/28 10:03:55;;;;;;;22.40;6.33;;;;;;;14.11;36.28;100174.81;4237777;28;20306;-70
2022/03/28 10:06:22;;;;;;;17.70;5.57;;;;;;;13.90;36.62;100175.41;4238761;28;20328;-75
2022/03/28 10:08:49;;;;;;;24.53;7.33;;;;;;;13.93;36.34;100177.75;4215756;28;20242;-73
2022/03/28 10:11:17;;;;;;;21.40;6.30;;;;;;;13.87;37.30;100167.72;4219636;28;21652;-72
2022/03/28 10:13:45;;;;;;;21.90;6.50;;;;;;;13.97;37.35;100151.47;4216839;28;21680;-72
2022/03/28 10:16:12;;;;;;;15.97;6.60;;;;;;;14.09;36.25;100167.97;4221546;28;20239;-70
2022/03/28 10:18:41;;;;;;;18.27;6.27;;;;;;;13.90;37.10;100156.69;4233068;28;20288;-69
2022/03/28 10:21:23;;;;;;;21.23;6.37;;;;;;;14.10;37.63;100151.75;4206701;28;21965;-69
2022/03/28 10:24:00;;;;;;;15.80;6.17;;;;;;;14.22;36.82;100160.22;4201532;28;20305;-70
2022/03/28 10:26:31;;;;;;;15.07;6.07;;;;;;;13.99;37.23;100157.47;4225714;28;20462;-68
2022/03/28 10:29:14;;;;;;;25.43;6.73;;;;;;;14.10;37.27;100165.13;4221397;28;20224;-72
2022/03/28 10:31:55;;;;;;;14.57;6.30;;;;;;;14.02;37.27;100156.28;4226225;28;20287;-72
2022/03/28 10:34:45;;;;;;;19.30;6.47;;;;;;;14.13;37.35;100143.38;4270650;28;20232;-74
2022/03/28 10:37:32;;;;;;;17.97;6.00;;;;;;;14.11;37.44;100131.16;4221927;28;20236;-75
2022/03/28 10:40:25;;;;;;;31.10;6.90;;;;;;;14.10;37.79;100118.81;4303990;28;21858;-74
2022/03/28 10:43:13;;;;;;;18.50;6.13;;;;;;;14.27;37.89;100125.72;4278730;28;20244;-75
2022/03/28 10:45:58;;;;;;;20.63;6.43;;;;;;;14.55;37.37;100106.50;4272167;28;23447;-74
2022/03/28 10:48:54;;;;;;;19.97;5.73;;;;;;;14.76;37.63;100101.31;4302039;28;21343;-75
2022/03/28 10:51:31;;;;;;;22.40;5.73;;;;;;;14.82;36.42;100094.41;4303464;28;20234;-74
2022/03/28 10:54:01;;;;;;;18.07;5.20;;;;;;;14.82;35.59;100113.16;4277827;28;22092;-74
2022/03/28 10:56:34;;;;;;;17.27;4.50;;;;;;;14.89;35.48;100086.44;4245192;28;20326;-76
2022/03/28 10:59:13;;;;;;;18.20;4.97;;;;;;;14.80;35.96;100072.31;4250980;28;20849;-76
2022/03/28 11:01:42;;;;;;;21.93;4.40;;;;;;;14.92;36.40;100075.41;4276533;28;20247;-56
2022/03/28 11:04:23;;;;;;;17.40;4.70;;;;;;;15.03;35.76;100068.75;4303595;28;20235;-69
2022/03/28 11:07:00;;;;;;;20.87;4.13;;;;;;;15.17;34.00;100068.78;4301025;28;20672;-73
2022/03/28 11:09:50;;;;;;;24.50;3.77;;;;;;;15.18;33.72;100070.44;4246091;28;20242;-75
2022/03/28 11:12:21;;;;;;;21.97;3.90;;;;;;;15.15;33.87;100061.94;4277555;28;20236;-77
2022/03/28 11:14:51;;;;;;;20.73;4.00;;;;;;;15.17;34.50;100041.97;4347236;28;20634;-76
2022/03/28 11:17:20;;;;;;;20.40;4.10;;;;;;;15.35;34.46;100054.97;4288915;28;22407;-73
2022/03/28 11:20:11;;;;;;;27.77;3.80;;;;;;;15.51;34.39;100043.25;4313174;28;21371;-74
2022/03/28 11:22:50;;;;;;;25.00;4.63;;;;;;;15.63;33.86;100062.38;4252555;28;20248;-74
2022/03/28 11:25:34;;;;;;;19.27;3.43;;;;;;;15.48;33.11;100048.16;4292091;28;20229;-74
2022/03/28 11:28:06;;;;;;;15.80;3.10;;;;;;;15.55;32.97;100038.34;4343607;28;22434;-82
2022/03/28 11:30:59;;;;;;;25.93;3.40;;;;;;;15.74;33.71;100043.16;4326063;28;21153;-76
2022/03/28 11:33:41;;;;;;;21.37;3.13;;;;;;;15.89;32.93;100034.22;4274058;28;20351;-78
2022/03/28 11:36:13;;;;;;;18.23;3.73;;;;;;;15.89;33.47;100013.56;4336528;28;21781;-74